Stolt Shearwater — ZCRD9 — position and weather

sailwx.info

Track history (hours):
 
Tides and Currents Weather Stations Pressure Air Temp Water Temp Dewpoint Dewpoint Depression Visibility Wind Speed Wind Dir Waves Ship Positions

Stolt Shearwater

Last reported at 2015-Aug-04 15:29 UTC. Time now 2015-Aug-04 22:00 UTC.
Position N 51°47' E 003°19'.

Length 96 m; draft 6.8 m.

Type: Ship (hazmat cat C). MMSI: 319402000.

Date/timePositionNaut miles runAvg speedWind from/ knotsBaromVisibWave heightAir tempDewpointWater temp
2015-Aug-04 15:29N 51°47' E 003°19'0 0.1
2015-Aug-04 14:32N 51°47' E 003°19'0 0.1
2015-Aug-04 13:32N 51°47' E 003°19'0 0.0
2015-Aug-04 03:20N 51°47' E 003°19'0 0.1
2015-Aug-04 02:26N 51°47' E 003°19'0 0.1
2015-Aug-04 01:29N 51°47' E 003°19'0 0.0
2015-Aug-04 00:23N 51°47' E 003°19'0 0.0
2015-Aug-03 13:11N 51°47' E 003°19'0 0.1
2015-Aug-03 12:32N 51°47' E 003°19'0 0.0
2015-Aug-03 08:26N 51°47' E 003°19'0 0.0
2015-Aug-03 05:17N 51°47' E 003°19'0 0.0
2015-Aug-03 04:32N 51°47' E 003°19'0 0.0
2015-Aug-03 03:32N 51°47' E 003°19'0 0.0
2015-Aug-03 02:32N 51°47' E 003°19'0 0.1
2015-Aug-03 01:26N 51°47' E 003°19'0 0.1
2015-Aug-03 00:33N 51°47' E 003°19'6 6.4
2015-Aug-02 23:33N 51°46' E 003°09'10 9.8
2015-Aug-02 22:33N 51°48' E 002°53'1111.2
2015-Aug-02 21:33N 51°57' E 002°42'1211.6
2015-Aug-02 20:31N 52°07' E 002°33'1111.3
2015-Aug-02 19:34N 52°17' E 002°24'1010.2
2015-Aug-02 18:33N 52°26' E 002°16'9 9.4
2015-Aug-02 17:34N 52°34' E 002°09'9 8.6
2015-Aug-02 16:33N 52°41' E 002°02'8 7.8
2015-Aug-02 15:33N 52°48' E 001°54'8 7.8
2015-Aug-02 14:34N 52°52' E 001°44'7 7.3
2015-Aug-02 13:33N 52°57' E 001°35'8 8.4
2015-Aug-02 12:33N 53°03' E 001°26'10 9.4
2015-Aug-02 11:33N 53°10' E 001°15'1410.2
2015-Aug-02 10:13N 53°20' E 000°59'910.7
2015-Aug-02 09:24N 53°25' E 000°47'910.7
2015-Aug-02 08:34N 53°29' E 000°34'1010.3
2015-Aug-02 07:33N 53°32' E 000°17'9 9.4
2015-Aug-02 06:34N 53°35' E 000°02'8 8.1
2015-Aug-02 05:33N 53°38' W 000°11'6 6.0
2015-Aug-02 04:33N 53°44' W 000°15'0 0.1
2015-Aug-02 03:33N 53°44' W 000°15'0 0.0
2015-Aug-02 02:33N 53°44' W 000°15'0 0.0
2015-Aug-02 01:34N 53°44' W 000°15'0 0.0
2015-Aug-02 00:34N 53°44' W 000°15'0 0.0
2015-Aug-01 23:34N 53°44' W 000°15'0 0.0
2015-Aug-01 22:33N 53°44' W 000°15'0 0.0
2015-Aug-01 21:33N 53°44' W 000°15'0 0.0
2015-Aug-01 20:33N 53°44' W 000°15'0 0.0
2015-Aug-01 19:33N 53°44' W 000°15'0 0.0
2015-Aug-01 18:34N 53°44' W 000°15'0 0.0
2015-Aug-01 17:34N 53°44' W 000°15'0 0.0
2015-Aug-01 16:33N 53°44' W 000°15'0 0.0
2015-Aug-01 15:33N 53°44' W 000°15'0 0.0
2015-Aug-01 14:34N 53°44' W 000°15'0 0.0
2015-Aug-01 13:33N 53°44' W 000°15'0 0.0
2015-Aug-01 12:34N 53°44' W 000°15'0 0.0
2015-Aug-01 11:34N 53°44' W 000°15'0 0.0
2015-Aug-01 10:33N 53°44' W 000°15'3 3.1
2015-Aug-01 09:34N 53°41' W 000°13'8 7.7
2015-Aug-01 08:33N 53°36' W 000°03'9 8.8
2015-Aug-01 07:34N 53°33' E 000°11'9 9.5
2015-Aug-01 06:33N 53°32' E 000°27'3410.5
2015-Aug-01 03:18N 53°12' E 001°13'1013.0
2015-Aug-01 02:33N 53°04' E 001°24'1414.3
2015-Aug-01 01:33N 52°54' E 001°40'1413.8
2015-Aug-01 00:33N 52°46' E 001°59'1312.8
2015-Jul-31 23:33N 52°34' E 002°08'7710.7
2015-Jul-31 16:20N 51°33' E 003°25'911.8
2015-Jul-31 15:33N 51°26' E 003°35'1111.0
2015-Jul-31 14:33N 51°22' E 003°51'8 7.6
2015-Jul-31 13:33N 51°25' E 004°02'7 6.7
2015-Jul-31 12:33N 51°24' E 004°13'8 8.3
2015-Jul-31 11:33N 51°17' E 004°20'0 0.3
2015-Jul-31 10:27N 51°17' E 004°20'0 0.0
2015-Jul-31 09:33N 51°17' E 004°20'0 0.0
2015-Jul-31 08:33N 51°17' E 004°20'0 0.0
2015-Jul-31 07:33N 51°17' E 004°20'0 0.0
2015-Jul-31 06:33N 51°17' E 004°20'0 0.0
2015-Jul-31 05:33N 51°17' E 004°20'0 0.0
2015-Jul-31 04:33N 51°17' E 004°20'0 0.0
2015-Jul-31 03:33N 51°17' E 004°20'0 0.0
2015-Jul-31 02:33N 51°17' E 004°20'0 0.0
2015-Jul-31 01:33N 51°17' E 004°20'0 0.0
2015-Jul-31 00:33N 51°17' E 004°20'0 0.0
2015-Jul-30 23:30N 51°17' E 004°20'0 0.0
2015-Jul-30 22:33N 51°17' E 004°20'0 0.0
2015-Jul-30 21:33N 51°17' E 004°20'0 0.0
2015-Jul-30 20:33N 51°17' E 004°20'0 0.0
2015-Jul-30 19:33N 51°17' E 004°20'0 0.0
2015-Jul-30 18:30N 51°17' E 004°20'0 0.0
2015-Jul-30 17:33N 51°17' E 004°20'0 0.0
2015-Jul-30 16:30N 51°17' E 004°20'0 0.0
2015-Jul-30 15:33N 51°17' E 004°20'0 0.0
2015-Jul-30 14:33N 51°17' E 004°20'1 0.5
2015-Jul-30 12:29N 51°18' E 004°20'0 0.0
2015-Jul-30 07:17N 51°18' E 004°20'0 0.0
2015-Jul-30 04:32N 51°18' E 004°20'0 0.0
2015-Jul-30 01:26N 51°18' E 004°20'0 0.0
2015-Jul-29 21:20N 51°18' E 004°20'0 0.0
2015-Jul-29 19:33N 51°18' E 004°20'0 0.0
2015-Jul-29 18:27N 51°18' E 004°20'0 0.0
2015-Jul-29 15:13N 51°18' E 004°20'0 0.0
2015-Jul-29 12:16N 51°18' E 004°20'2 3.3
2015-Jul-29 11:33N 51°16' E 004°22'0 0.2
2015-Jul-29 10:30N 51°16' E 004°22'0 0.0
2015-Jul-29 09:33N 51°16' E 004°22'0 0.0
2015-Jul-29 08:33N 51°16' E 004°22'0 0.0
2015-Jul-29 07:33N 51°16' E 004°22'0 0.0
2015-Jul-29 06:33N 51°16' E 004°22'0 0.0
2015-Jul-29 05:30N 51°16' E 004°22'0 0.0
2015-Jul-29 04:30N 51°16' E 004°22'0 0.0
2015-Jul-29 03:30N 51°16' E 004°22'0 0.0
2015-Jul-29 02:33N 51°16' E 004°22'0 0.0
2015-Jul-29 01:33N 51°16' E 004°22'0 0.0
2015-Jul-29 00:33N 51°16' E 004°22'0 0.0
2015-Jul-28 23:33N 51°16' E 004°22'0 0.0
2015-Jul-28 22:33N 51°16' E 004°22'0 0.0
2015-Jul-28 21:33N 51°16' E 004°22'0 0.0
2015-Jul-28 20:33N 51°16' E 004°22'0 0.0
2015-Jul-28 19:33N 51°16' E 004°22'0 0.0
2015-Jul-28 18:33N 51°16' E 004°22'2 1.6
2015-Jul-28 17:33N 51°17' E 004°20'0 0.0
2015-Jul-28 16:33N 51°17' E 004°20'2 1.9
2015-Jul-28 15:33N 51°18' E 004°17'5 4.8
2015-Jul-28 14:33N 51°22' E 004°13'7 6.8
2015-Jul-28 13:33N 51°23' E 004°02'5 4.6
2015-Jul-28 12:33N 51°22' E 003°55'9 8.8
2015-Jul-28 11:33N 51°24' E 003°41'9 9.3
2015-Jul-28 10:33N 51°29' E 003°29'8 8.4
2015-Jul-28 09:33N 51°36' E 003°22'9 8.5
2015-Jul-28 08:32N 51°43' E 003°13'60 9.9
2015-Jul-28 02:28N 52°30' E 002°12'10 9.9
2015-Jul-28 01:27N 52°39' E 002°04'8 9.4
2015-Jul-28 00:33N 52°46' E 001°57'9 9.3
2015-Jul-27 23:33N 52°51' E 001°44'9 8.9
2015-Jul-27 22:33N 52°58' E 001°34'9 9.2
2015-Jul-27 21:33N 53°05' E 001°24'49 9.7
2015-Jul-27 16:33N 53°32' E 000°17'8 8.3
2015-Jul-27 15:33N 53°35' E 000°04'10 9.9
2015-Jul-27 14:33N 53°39' W 000°12'5 5.2
2015-Jul-27 13:33N 53°44' W 000°15'0 0.0
2015-Jul-27 12:33N 53°44' W 000°15'0 0.0
2015-Jul-27 11:33N 53°44' W 000°15'0 0.0
2015-Jul-27 10:33N 53°44' W 000°15'0 0.0
2015-Jul-27 09:33N 53°44' W 000°15'0 0.0
2015-Jul-27 08:33N 53°44' W 000°15'0 0.0
2015-Jul-27 07:33N 53°44' W 000°15'0 0.0
2015-Jul-27 06:33N 53°44' W 000°15'0 0.0
2015-Jul-27 05:33N 53°44' W 000°15'0 0.0
2015-Jul-27 04:33N 53°44' W 000°15'0 0.0
2015-Jul-27 03:33N 53°44' W 000°15'0 0.0
2015-Jul-27 02:33N 53°44' W 000°15'0 0.0
2015-Jul-27 01:33N 53°44' W 000°15'0 0.0
2015-Jul-27 00:33N 53°44' W 000°15'0 0.0
2015-Jul-26 23:33N 53°44' W 000°15'0 0.0
2015-Jul-26 22:33N 53°44' W 000°15'0 0.0
2015-Jul-26 21:34N 53°44' W 000°15'5 4.9
2015-Jul-26 20:34N 53°39' W 000°12'10 9.6
2015-Jul-26 19:34N 53°35' E 000°03'1010.4
2015-Jul-26 18:33N 53°33' E 000°20'4511.2
2015-Jul-26 14:33N 53°07' E 001°21'1110.6
2015-Jul-26 13:34N 52°59' E 001°33'1110.9
2015-Jul-26 12:33N 52°51' E 001°45'1211.6
2015-Jul-26 11:33N 52°45' E 002°01'78 7.6
2015-Jul-26 01:16N 51°42' E 003°18'6 8.9
2015-Jul-26 00:33N 51°36' E 003°23'1111.0
2015-Jul-25 23:33N 51°27' E 003°32'9 9.4
2015-Jul-25 22:33N 51°22' E 003°45'1010.3
2015-Jul-25 21:34N 51°26' E 003°60'8 8.1
2015-Jul-25 20:33N 51°24' E 004°12'7 6.0
2015-Jul-25 19:27N 51°18' E 004°17'  
Track history (hours):
 
Tides and Currents Weather Stations Pressure Air Temp Water Temp Dewpoint Dewpoint Depression Visibility Wind Speed Wind Dir Waves Ship Positions

Stolt Shearwater

Last reported at 2015-Aug-04 15:29 UTC. Time now 2015-Aug-04 22:00 UTC.
Position N 51°47' E 003°19'.

Length 96 m; draft 6.8 m.

Type: Ship (hazmat cat C). MMSI: 319402000.

Date/timePositionNaut miles runAvg speedWind from/ knotsBaromVisibWave heightAir tempDewpointWater temp
2015-Aug-04 15:29N 51°47' E 003°19'0 0.1
2015-Aug-04 14:32N 51°47' E 003°19'0 0.1
2015-Aug-04 13:32N 51°47' E 003°19'0 0.0
2015-Aug-04 03:20N 51°47' E 003°19'0 0.1
2015-Aug-04 02:26N 51°47' E 003°19'0 0.1
2015-Aug-04 01:29N 51°47' E 003°19'0 0.0
2015-Aug-04 00:23N 51°47' E 003°19'0 0.0
2015-Aug-03 13:11N 51°47' E 003°19'0 0.1
2015-Aug-03 12:32N 51°47' E 003°19'0 0.0
2015-Aug-03 08:26N 51°47' E 003°19'0 0.0
2015-Aug-03 05:17N 51°47' E 003°19'0 0.0
2015-Aug-03 04:32N 51°47' E 003°19'0 0.0
2015-Aug-03 03:32N 51°47' E 003°19'0 0.0
2015-Aug-03 02:32N 51°47' E 003°19'0 0.1
2015-Aug-03 01:26N 51°47' E 003°19'0 0.1
2015-Aug-03 00:33N 51°47' E 003°19'6 6.4
2015-Aug-02 23:33N 51°46' E 003°09'10 9.8
2015-Aug-02 22:33N 51°48' E 002°53'1111.2
2015-Aug-02 21:33N 51°57' E 002°42'1211.6
2015-Aug-02 20:31N 52°07' E 002°33'1111.3
2015-Aug-02 19:34N 52°17' E 002°24'1010.2
2015-Aug-02 18:33N 52°26' E 002°16'9 9.4
2015-Aug-02 17:34N 52°34' E 002°09'9 8.6
2015-Aug-02 16:33N 52°41' E 002°02'8 7.8
2015-Aug-02 15:33N 52°48' E 001°54'8 7.8
2015-Aug-02 14:34N 52°52' E 001°44'7 7.3
2015-Aug-02 13:33N 52°57' E 001°35'8 8.4
2015-Aug-02 12:33N 53°03' E 001°26'10 9.4
2015-Aug-02 11:33N 53°10' E 001°15'1410.2
2015-Aug-02 10:13N 53°20' E 000°59'910.7
2015-Aug-02 09:24N 53°25' E 000°47'910.7
2015-Aug-02 08:34N 53°29' E 000°34'1010.3
2015-Aug-02 07:33N 53°32' E 000°17'9 9.4
2015-Aug-02 06:34N 53°35' E 000°02'8 8.1
2015-Aug-02 05:33N 53°38' W 000°11'6 6.0
2015-Aug-02 04:33N 53°44' W 000°15'0 0.1
2015-Aug-02 03:33N 53°44' W 000°15'0 0.0
2015-Aug-02 02:33N 53°44' W 000°15'0 0.0
2015-Aug-02 01:34N 53°44' W 000°15'0 0.0
2015-Aug-02 00:34N 53°44' W 000°15'0 0.0
2015-Aug-01 23:34N 53°44' W 000°15'0 0.0
2015-Aug-01 22:33N 53°44' W 000°15'0 0.0
2015-Aug-01 21:33N 53°44' W 000°15'0 0.0
2015-Aug-01 20:33N 53°44' W 000°15'0 0.0
2015-Aug-01 19:33N 53°44' W 000°15'0 0.0
2015-Aug-01 18:34N 53°44' W 000°15'0 0.0
2015-Aug-01 17:34N 53°44' W 000°15'0 0.0
2015-Aug-01 16:33N 53°44' W 000°15'0 0.0
2015-Aug-01 15:33N 53°44' W 000°15'0 0.0
2015-Aug-01 14:34N 53°44' W 000°15'0 0.0
2015-Aug-01 13:33N 53°44' W 000°15'0 0.0
2015-Aug-01 12:34N 53°44' W 000°15'0 0.0
2015-Aug-01 11:34N 53°44' W 000°15'0 0.0
2015-Aug-01 10:33N 53°44' W 000°15'3 3.1
2015-Aug-01 09:34N 53°41' W 000°13'8 7.7
2015-Aug-01 08:33N 53°36' W 000°03'9 8.8
2015-Aug-01 07:34N 53°33' E 000°11'9 9.5
2015-Aug-01 06:33N 53°32' E 000°27'3410.5
2015-Aug-01 03:18N 53°12' E 001°13'1013.0
2015-Aug-01 02:33N 53°04' E 001°24'1414.3
2015-Aug-01 01:33N 52°54' E 001°40'1413.8
2015-Aug-01 00:33N 52°46' E 001°59'1312.8
2015-Jul-31 23:33N 52°34' E 002°08'7710.7
2015-Jul-31 16:20N 51°33' E 003°25'911.8
2015-Jul-31 15:33N 51°26' E 003°35'1111.0
2015-Jul-31 14:33N 51°22' E 003°51'8 7.6
2015-Jul-31 13:33N 51°25' E 004°02'7 6.7
2015-Jul-31 12:33N 51°24' E 004°13'8 8.3
2015-Jul-31 11:33N 51°17' E 004°20'0 0.3
2015-Jul-31 10:27N 51°17' E 004°20'0 0.0
2015-Jul-31 09:33N 51°17' E 004°20'0 0.0
2015-Jul-31 08:33N 51°17' E 004°20'0 0.0
2015-Jul-31 07:33N 51°17' E 004°20'0 0.0
2015-Jul-31 06:33N 51°17' E 004°20'0 0.0
2015-Jul-31 05:33N 51°17' E 004°20'0 0.0
2015-Jul-31 04:33N 51°17' E 004°20'0 0.0
2015-Jul-31 03:33N 51°17' E 004°20'0 0.0
2015-Jul-31 02:33N 51°17' E 004°20'0 0.0
2015-Jul-31 01:33N 51°17' E 004°20'0 0.0
2015-Jul-31 00:33N 51°17' E 004°20'0 0.0
2015-Jul-30 23:30N 51°17' E 004°20'0 0.0
2015-Jul-30 22:33N 51°17' E 004°20'0 0.0
2015-Jul-30 21:33N 51°17' E 004°20'0 0.0
2015-Jul-30 20:33N 51°17' E 004°20'0 0.0
2015-Jul-30 19:33N 51°17' E 004°20'0 0.0
2015-Jul-30 18:30N 51°17' E 004°20'0 0.0
2015-Jul-30 17:33N 51°17' E 004°20'0 0.0
2015-Jul-30 16:30N 51°17' E 004°20'0 0.0
2015-Jul-30 15:33N 51°17' E 004°20'0 0.0
2015-Jul-30 14:33N 51°17' E 004°20'1 0.5
2015-Jul-30 12:29N 51°18' E 004°20'0 0.0
2015-Jul-30 07:17N 51°18' E 004°20'0 0.0
2015-Jul-30 04:32N 51°18' E 004°20'0 0.0
2015-Jul-30 01:26N 51°18' E 004°20'0 0.0
2015-Jul-29 21:20N 51°18' E 004°20'0 0.0
2015-Jul-29 19:33N 51°18' E 004°20'0 0.0
2015-Jul-29 18:27N 51°18' E 004°20'0 0.0
2015-Jul-29 15:13N 51°18' E 004°20'0 0.0
2015-Jul-29 12:16N 51°18' E 004°20'2 3.3
2015-Jul-29 11:33N 51°16' E 004°22'0 0.2
2015-Jul-29 10:30N 51°16' E 004°22'0 0.0
2015-Jul-29 09:33N 51°16' E 004°22'0 0.0
2015-Jul-29 08:33N 51°16' E 004°22'0 0.0
2015-Jul-29 07:33N 51°16' E 004°22'0 0.0
2015-Jul-29 06:33N 51°16' E 004°22'0 0.0
2015-Jul-29 05:30N 51°16' E 004°22'0 0.0
2015-Jul-29 04:30N 51°16' E 004°22'0 0.0
2015-Jul-29 03:30N 51°16' E 004°22'0 0.0
2015-Jul-29 02:33N 51°16' E 004°22'0 0.0
2015-Jul-29 01:33N 51°16' E 004°22'0 0.0
2015-Jul-29 00:33N 51°16' E 004°22'0 0.0
2015-Jul-28 23:33N 51°16' E 004°22'0 0.0
2015-Jul-28 22:33N 51°16' E 004°22'0 0.0
2015-Jul-28 21:33N 51°16' E 004°22'0 0.0
2015-Jul-28 20:33N 51°16' E 004°22'0 0.0
2015-Jul-28 19:33N 51°16' E 004°22'0 0.0
2015-Jul-28 18:33N 51°16' E 004°22'2 1.6
2015-Jul-28 17:33N 51°17' E 004°20'0 0.0
2015-Jul-28 16:33N 51°17' E 004°20'2 1.9
2015-Jul-28 15:33N 51°18' E 004°17'5 4.8
2015-Jul-28 14:33N 51°22' E 004°13'7 6.8
2015-Jul-28 13:33N 51°23' E 004°02'5 4.6
2015-Jul-28 12:33N 51°22' E 003°55'9 8.8
2015-Jul-28 11:33N 51°24' E 003°41'9 9.3
2015-Jul-28 10:33N 51°29' E 003°29'8 8.4
2015-Jul-28 09:33N 51°36' E 003°22'9 8.5
2015-Jul-28 08:32N 51°43' E 003°13'60 9.9
2015-Jul-28 02:28N 52°30' E 002°12'10 9.9
2015-Jul-28 01:27N 52°39' E 002°04'8 9.4
2015-Jul-28 00:33N 52°46' E 001°57'9 9.3
2015-Jul-27 23:33N 52°51' E 001°44'9 8.9
2015-Jul-27 22:33N 52°58' E 001°34'9 9.2
2015-Jul-27 21:33N 53°05' E 001°24'49 9.7
2015-Jul-27 16:33N 53°32' E 000°17'8 8.3
2015-Jul-27 15:33N 53°35' E 000°04'10 9.9
2015-Jul-27 14:33N 53°39' W 000°12'5 5.2
2015-Jul-27 13:33N 53°44' W 000°15'0 0.0
2015-Jul-27 12:33N 53°44' W 000°15'0 0.0
2015-Jul-27 11:33N 53°44' W 000°15'0 0.0
2015-Jul-27 10:33N 53°44' W 000°15'0 0.0
2015-Jul-27 09:33N 53°44' W 000°15'0 0.0
2015-Jul-27 08:33N 53°44' W 000°15'0 0.0
2015-Jul-27 07:33N 53°44' W 000°15'0 0.0
2015-Jul-27 06:33N 53°44' W 000°15'0 0.0
2015-Jul-27 05:33N 53°44' W 000°15'0 0.0
2015-Jul-27 04:33N 53°44' W 000°15'0 0.0
2015-Jul-27 03:33N 53°44' W 000°15'0 0.0
2015-Jul-27 02:33N 53°44' W 000°15'0 0.0
2015-Jul-27 01:33N 53°44' W 000°15'0 0.0
2015-Jul-27 00:33N 53°44' W 000°15'0 0.0
2015-Jul-26 23:33N 53°44' W 000°15'0 0.0
2015-Jul-26 22:33N 53°44' W 000°15'0 0.0
2015-Jul-26 21:34N 53°44' W 000°15'5 4.9
2015-Jul-26 20:34N 53°39' W 000°12'10 9.6
2015-Jul-26 19:34N 53°35' E 000°03'1010.4
2015-Jul-26 18:33N 53°33' E 000°20'4511.2
2015-Jul-26 14:33N 53°07' E 001°21'1110.6
2015-Jul-26 13:34N 52°59' E 001°33'1110.9
2015-Jul-26 12:33N 52°51' E 001°45'1211.6
2015-Jul-26 11:33N 52°45' E 002°01'78 7.6
2015-Jul-26 01:16N 51°42' E 003°18'6 8.9
2015-Jul-26 00:33N 51°36' E 003°23'1111.0
2015-Jul-25 23:33N 51°27' E 003°32'9 9.4
2015-Jul-25 22:33N 51°22' E 003°45'1010.3
2015-Jul-25 21:34N 51°26' E 003°60'8 8.1
2015-Jul-25 20:33N 51°24' E 004°12'7 6.0
2015-Jul-25 19:27N 51°18' E 004°17'  

Dump ship's entire track history